Time;durP1;ratioP1;P1;durP2;ratioP2;P2;SDS_P1;SDS_P2;PMS_P1;PMS_P2;Temp;Humidity;BMP_temperature;BMP_pressure;BME280_temperature;BME280_humidity;BME280_pressure;Samples;Min_cycle;Max_cycle;Signal;HPM_P1;HPM_P2
2022/10/19 00:00:44;;;;;;;2.97;0.60;;;11.40;99.90;;;;;;9196627;19;20416;-73
2022/10/19 00:03:48;;;;;;;;;;;11.50;99.90;;;;;;9196417;19;19914;-73
2022/10/19 00:06:52;;;;;;;0.93;0.30;;;;;;;;;;9200594;19;20347;-73
2022/10/19 00:09:56;;;;;;;5.57;0.65;;;11.20;99.90;;;;;;9195442;19;19915;-73
2022/10/19 00:13:00;;;;;;;3.70;0.90;;;11.70;99.90;;;;;;9195113;19;19910;-73
2022/10/19 00:16:10;;;;;;;3.05;0.43;;;11.90;99.90;;;;;;9195857;19;19926;-73
2022/10/19 00:19:16;;;;;;;4.28;0.47;;;11.50;99.90;;;;;;9194965;19;19990;-73
2022/10/19 00:22:19;;;;;;;8.00;0.70;;;12.00;99.90;;;;;;9194391;19;19915;-73
2022/10/19 00:25:23;;;;;;;5.25;0.50;;;12.10;99.90;;;;;;9197302;19;19922;-73
2022/10/19 00:28:28;;;;;;;4.53;0.60;;;11.30;99.90;;;;;;9197843;19;19907;-73
2022/10/19 00:31:34;;;;;;;2.33;0.65;;;11.50;99.90;;;;;;9197535;19;19966;-73
2022/10/19 00:34:38;;;;;;;1.65;0.50;;;11.60;99.90;;;;;;9194677;19;20031;-74
2022/10/19 00:37:42;;;;;;;4.43;0.77;;;11.40;99.90;;;;;;9197854;19;20006;-73
2022/10/19 00:40:46;;;;;;;2.97;0.50;;;11.40;99.90;;;;;;9194459;19;19949;-73
2022/10/19 00:43:56;;;;;;;4.03;0.60;;;11.60;99.90;;;;;;9197489;19;19938;-73
2022/10/19 00:47:07;;;;;;;9.70;1.10;;;11.90;99.90;;;;;;9194176;19;19915;-74
2022/10/19 00:50:16;;;;;;;1.58;0.60;;;11.60;99.90;;;;;;9194187;19;19925;-73
2022/10/19 00:53:21;;;;;;;2.65;0.60;;;11.50;99.90;;;;;;9194351;19;19928;-73
2022/10/19 00:56:25;;;;;;;4.88;0.73;;;12.10;99.90;;;;;;9193902;19;19914;-73
2022/10/19 00:59:31;;;;;;;2.80;0.70;;;11.50;99.90;;;;;;9190689;19;19929;-72
2022/10/19 01:02:37;;;;;;;4.75;1.40;;;11.60;99.90;;;;;;9198682;19;19927;-73
2022/10/19 01:05:42;;;;;;;3.85;0.93;;;11.70;99.90;;;;;;9205997;19;19918;-73
2022/10/19 01:08:46;;;;;;;5.47;0.50;;;11.40;99.90;;;;;;9198445;19;19923;-73
2022/10/19 01:11:58;;;;;;;3.10;0.90;;;11.50;99.90;;;;;;9196728;19;20075;-73
2022/10/19 01:15:14;;;;;;;2.00;0.50;;;11.00;99.90;;;;;;9191662;19;19978;-73
2022/10/19 01:18:26;;;;;;;4.80;0.80;;;11.70;99.90;;;;;;9194916;19;19919;-73
2022/10/19 01:21:35;;;;;;;3.35;0.50;;;11.70;99.90;;;;;;9194403;19;19923;-73
2022/10/19 01:25:01;;;;;;;5.97;0.70;;;11.60;99.90;;;;;;9193922;19;19910;-73
2022/10/19 01:28:19;;;;;;;2.38;0.57;;;11.70;99.90;;;;;;9194331;19;19921;-73
2022/10/19 01:31:33;;;;;;;2.88;0.43;;;11.90;99.90;;;;;;9195224;19;19925;-73
2022/10/19 01:34:43;;;;;;;3.15;0.95;;;11.70;99.90;;;;;;9194163;19;19948;-75
2022/10/19 01:37:51;;;;;;;2.80;0.50;;;11.70;99.90;;;;;;9193694;19;19922;-73
2022/10/19 01:41:00;;;;;;;2.10;0.70;;;11.20;99.90;;;;;;9190935;19;19997;-73
2022/10/19 01:44:12;;;;;;;1.70;0.40;;;11.40;99.90;;;;;;9193228;19;19919;-73
2022/10/19 01:47:24;;;;;;;5.75;1.42;;;11.50;99.90;;;;;;9194883;19;19919;-73
2022/10/19 01:50:33;;;;;;;2.70;0.70;;;11.80;99.90;;;;;;9193974;19;19925;-73
2022/10/19 01:53:43;;;;;;;5.93;0.63;;;12.00;99.90;;;;;;9194495;19;20373;-73
2022/10/19 01:56:49;;;;;;;6.40;0.65;;;11.70;99.90;;;;;;9193301;19;20010;-73
2022/10/19 01:59:54;;;;;;;1.73;0.50;;;12.00;99.90;;;;;;9192892;19;19994;-73
2022/10/19 02:03:03;;;;;;;5.25;0.63;;;11.40;99.90;;;;;;9193336;19;19919;-73
2022/10/19 02:06:10;;;;;;;1.67;0.40;;;11.20;99.90;;;;;;9194473;19;20330;-74
2022/10/19 02:09:17;;;;;;;2.65;0.38;;;11.70;99.90;;;;;;9193365;19;20010;-73
2022/10/19 02:12:23;;;;;;;5.20;0.90;;;11.50;99.90;;;;;;9193337;19;19986;-73
2022/10/19 02:15:28;;;;;;;4.53;0.63;;;11.70;99.90;;;;;;9192840;19;20256;-73
2022/10/19 02:18:42;;;;;;;4.32;0.60;;;11.70;99.90;;;;;;9192084;19;19914;-73
2022/10/19 02:21:46;;;;;;;4.40;0.73;;;;;;;;;;9193312;19;19933;-73
2022/10/19 02:24:50;;;;;;;7.00;0.80;;;11.70;99.90;;;;;;9189877;19;19915;-73
2022/10/19 02:27:54;;;;;;;7.53;1.00;;;11.20;99.90;;;;;;9191701;19;19918;-73
2022/10/19 02:31:00;;;;;;;3.58;0.90;;;11.50;99.90;;;;;;9193959;19;20004;-73
2022/10/19 02:34:07;;;;;;;5.50;0.80;;;11.70;99.90;;;;;;9200053;19;19952;-73
2022/10/19 02:37:11;;;;;;;6.45;1.27;;;11.50;99.90;;;;;;9201485;19;19978;-73
2022/10/19 02:40:15;;;;;;;5.22;1.10;;;11.60;99.90;;;;;;9201687;19;20321;-73
2022/10/19 02:43:22;;;;;;;4.93;1.02;;;11.10;99.90;;;;;;9200921;19;20272;-73
2022/10/19 02:46:33;;;;;;;5.88;1.20;;;11.70;99.90;;;;;;9202614;19;19919;-74
2022/10/19 02:49:41;;;;;;;7.80;0.85;;;11.40;99.90;;;;;;9199932;19;19919;-74
2022/10/19 02:52:44;;;;;;;4.35;0.70;;;11.40;99.90;;;;;;9201328;19;20325;-74
2022/10/19 02:55:50;;;;;;;5.47;0.93;;;11.90;99.90;;;;;;9201435;19;19989;-74
2022/10/19 02:58:54;;;;;;;5.88;1.00;;;11.10;99.90;;;;;;9200656;19;20329;-73
2022/10/19 03:01:58;;;;;;;4.65;0.77;;;11.20;99.90;;;;;;9201194;19;19975;-74
2022/10/19 03:05:05;;;;;;;4.57;0.80;;;11.10;99.90;;;;;;9198812;19;19918;-74
2022/10/19 03:08:09;;;;;;;7.57;1.10;;;11.60;99.90;;;;;;9202028;19;19918;-74
2022/10/19 03:11:14;;;;;;;5.88;0.80;;;;;;;;;;9199201;19;19922;-73
2022/10/19 03:14:17;;;;;;;5.70;0.63;;;11.30;99.90;;;;;;9196696;19;19941;-74
2022/10/19 03:17:21;;;;;;;5.00;0.88;;;11.30;99.90;;;;;;9200124;19;19922;-75
2022/10/19 03:20:28;;;;;;;8.63;1.00;;;11.20;99.90;;;;;;9196439;19;19922;-74
2022/10/19 03:23:32;;;;;;;8.25;0.90;;;;;;;;;;9193924;19;19917;-74
2022/10/19 03:26:36;;;;;;;8.68;1.10;;;11.40;99.90;;;;;;9198687;19;20288;-74
2022/10/19 03:29:40;;;;;;;8.18;1.10;;;11.20;99.90;;;;;;9200260;19;19930;-74
2022/10/19 03:32:43;;;;;;;5.25;0.70;;;11.40;99.90;;;;;;9195483;19;19922;-74
2022/10/19 03:35:50;;;;;;;8.45;1.20;;;11.00;99.90;;;;;;9204356;19;19922;-71
2022/10/19 03:38:55;;;;;;;6.93;1.17;;;11.10;99.90;;;;;;9201088;19;19922;-73
2022/10/19 03:41:58;;;;;;;4.88;0.93;;;10.90;99.90;;;;;;9194699;19;19978;-73
2022/10/19 03:45:02;;;;;;;5.65;1.30;;;11.30;99.90;;;;;;9191812;19;19956;-72
2022/10/19 03:48:07;;;;;;;3.00;0.75;;;10.70;99.90;;;;;;9197946;19;19926;-73
2022/10/19 03:51:15;;;;;;;8.30;1.08;;;11.00;99.90;;;;;;9198231;19;19928;-73
2022/10/19 03:54:19;;;;;;;7.40;0.93;;;10.90;99.90;;;;;;9197172;19;20373;-73
2022/10/19 03:57:24;;;;;;;8.65;0.80;;;10.90;99.90;;;;;;9195321;19;19927;-73
2022/10/19 04:00:30;;;;;;;5.10;0.80;;;10.90;99.90;;;;;;9194564;19;19930;-73
2022/10/19 04:03:34;;;;;;;4.55;1.25;;;10.70;99.90;;;;;;9194402;19;19948;-73
2022/10/19 04:06:43;;;;;;;7.70;1.05;;;10.90;99.90;;;;;;9196492;19;20316;-73
2022/10/19 04:09:47;;;;;;;6.75;0.80;;;10.60;99.90;;;;;;9190455;19;19949;-73
2022/10/19 04:12:51;;;;;;;7.90;0.98;;;10.90;99.90;;;;;;9194220;19;19921;-73
2022/10/19 04:15:55;;;;;;;6.47;1.13;;;11.00;99.90;;;;;;9196453;19;20395;-74
2022/10/19 04:19:00;;;;;;;6.38;0.95;;;10.90;99.90;;;;;;9197766;19;19919;-73
2022/10/19 04:22:07;;;;;;;7.50;1.52;;;10.80;99.90;;;;;;9195283;19;20334;-73
2022/10/19 04:25:11;;;;;;;7.28;0.75;;;10.70;99.90;;;;;;9191378;19;20004;-73
2022/10/19 04:28:16;;;;;;;4.03;0.70;;;10.80;99.90;;;;;;9195133;19;20090;-75
2022/10/19 04:31:20;;;;;;;6.72;0.80;;;10.80;99.90;;;;;;9195658;19;19914;-74
2022/10/19 04:34:24;;;;;;;7.68;1.20;;;11.30;99.90;;;;;;9195898;19;19914;-74
2022/10/19 04:37:30;;;;;;;4.05;0.68;;;11.00;99.90;;;;;;9194877;19;19922;-74
2022/10/19 04:40:37;;;;;;;6.35;1.13;;;10.80;99.90;;;;;;9195548;19;20029;-74
2022/10/19 04:43:44;;;;;;;2.13;0.73;;;11.00;99.90;;;;;;9194356;19;19919;-74
2022/10/19 04:46:47;;;;;;;7.30;1.00;;;10.80;99.90;;;;;;9193559;19;19928;-74
2022/10/19 04:49:51;;;;;;;6.07;1.33;;;11.20;99.90;;;;;;9197210;19;19927;-74
2022/10/19 04:52:58;;;;;;;7.10;1.02;;;11.40;99.90;;;;;;9196431;19;19915;-74
2022/10/19 04:56:05;;;;;;;7.25;0.98;;;11.40;99.90;;;;;;9191836;19;19921;-74
2022/10/19 04:59:11;;;;;;;6.95;1.10;;;11.00;99.90;;;;;;9192564;19;19922;-74
2022/10/19 05:02:14;;;;;;;5.90;1.08;;;11.40;99.90;;;;;;9195531;19;19926;-74
2022/10/19 05:05:18;;;;;;;5.95;0.70;;;10.70;99.90;;;;;;9191395;19;19922;-74
2022/10/19 05:08:25;;;;;;;6.03;0.90;;;12.20;99.90;;;;;;9195896;19;19929;-74
2022/10/19 05:11:29;;;;;;;7.85;1.10;;;11.20;99.90;;;;;;9196480;19;19926;-74
2022/10/19 05:14:35;;;;;;;6.70;1.45;;;11.10;99.90;;;;;;9193532;19;19933;-74
2022/10/19 05:17:38;;;;;;;8.10;1.75;;;11.20;99.90;;;;;;9193027;19;19933;-74
2022/10/19 05:20:43;;;;;;;6.50;1.13;;;;;;;;;;9191505;19;19983;-74
2022/10/19 05:23:53;;;;;;;5.53;0.68;;;10.90;99.90;;;;;;9196763;19;19936;-74
2022/10/19 05:26:57;;;;;;;3.40;0.60;;;11.30;99.90;;;;;;9193178;19;19960;-74
2022/10/19 05:30:01;;;;;;;4.18;0.60;;;;;;;;;;9192511;19;19946;-74
2022/10/19 05:33:05;;;;;;;8.65;1.20;;;10.70;99.90;;;;;;9189545;19;19970;-74
2022/10/19 05:36:18;;;;;;;4.30;0.90;;;11.00;99.90;;;;;;9186369;19;20001;-74
2022/10/19 05:39:25;;;;;;;7.05;1.45;;;10.70;99.90;;;;;;9182284;19;19918;-74
2022/10/19 05:42:29;;;;;;;6.85;1.25;;;;;;;;;;9182946;19;19997;-74
2022/10/19 05:45:33;;;;;;;3.22;0.90;;;11.00;99.90;;;;;;9181446;19;20210;-74
2022/10/19 05:48:37;;;;;;;6.32;1.33;;;11.00;99.90;;;;;;9183207;19;20332;-74
2022/10/19 05:51:41;;;;;;;6.38;1.23;;;10.90;99.90;;;;;;9182032;19;19926;-74
2022/10/19 05:54:48;;;;;;;7.90;0.93;;;10.70;99.90;;;;;;9181080;19;19923;-74
2022/10/19 05:57:52;;;;;;;5.90;1.15;;;;;;;;;;9181826;19;19923;-74
2022/10/19 06:00:58;;;;;;;3.42;0.80;;;10.80;99.90;;;;;;9182205;19;19990;-74
2022/10/19 06:04:03;;;;;;;2.60;0.68;;;10.30;99.90;;;;;;9185521;19;19923;-74
2022/10/19 06:07:07;;;;;;;6.65;0.73;;;11.10;99.90;;;;;;9185819;19;19974;-74
2022/10/19 06:10:14;;;;;;;6.00;0.90;;;10.70;99.90;;;;;;9201680;19;20597;-74
2022/10/19 06:13:19;;;;;;;5.68;0.75;;;10.50;99.90;;;;;;9201615;19;19927;-74
2022/10/19 06:16:24;;;;;;;4.75;0.95;;;10.80;99.90;;;;;;9194441;19;19918;-73
2022/10/19 06:19:28;;;;;;;5.20;0.70;;;10.80;99.90;;;;;;9192629;19;20363;-72
2022/10/19 06:22:32;;;;;;;8.20;0.70;;;10.70;99.90;;;;;;9196130;19;19919;-73
2022/10/19 06:25:39;;;;;;;4.85;0.93;;;11.00;99.90;;;;;;9196585;19;20647;-73
2022/10/19 06:28:45;;;;;;;3.80;0.73;;;10.80;99.90;;;;;;9194876;19;19918;-72
2022/10/19 06:31:50;;;;;;;3.40;0.55;;;10.90;99.90;;;;;;9195182;19;20498;-73
2022/10/19 06:34:54;;;;;;;7.20;0.95;;;10.90;99.90;;;;;;9189340;19;19923;-73
2022/10/19 06:37:59;;;;;;;6.30;1.00;;;11.80;99.90;;;;;;9190219;19;19928;-73
2022/10/19 06:41:06;;;;;;;13.05;1.42;;;11.50;99.90;;;;;;9194055;19;20001;-73
2022/10/19 06:44:11;;;;;;;3.67;0.63;;;10.60;99.90;;;;;;9194489;19;19918;-73
2022/10/19 06:47:14;;;;;;;4.13;0.70;;;11.90;99.90;;;;;;9198418;19;19926;-72
2022/10/19 06:50:19;;;;;;;3.08;0.75;;;;;;;;;;9194878;19;19918;-73
2022/10/19 06:53:23;;;;;;;8.85;0.60;;;;;;;;;;9198129;19;19915;-72
2022/10/19 06:56:30;;;;;;;4.93;0.73;;;10.90;99.90;;;;;;9191828;19;20024;-71
2022/10/19 06:59:33;;;;;;;5.28;0.70;;;11.00;99.90;;;;;;9197307;19;19922;-72
2022/10/19 07:02:38;;;;;;;2.65;0.90;;;11.10;99.90;;;;;;9199044;19;19914;-72
2022/10/19 07:05:42;;;;;;;4.97;0.75;;;11.20;99.90;;;;;;9193314;19;20403;-71
2022/10/19 07:08:46;;;;;;;5.93;0.82;;;11.70;99.90;;;;;;9199632;19;19935;-72
2022/10/19 07:11:52;;;;;;;2.88;0.77;;;11.00;99.90;;;;;;9198462;19;20028;-72
2022/10/19 07:14:57;;;;;;;4.07;0.60;;;;;;;;;;9197966;19;19922;-72
2022/10/19 07:18:01;;;;;;;8.02;0.82;;;;;;;;;;9193463;19;20028;-72
2022/10/19 07:21:08;;;;;;;6.45;0.85;;;11.60;99.90;;;;;;9185987;19;19993;-72
2022/10/19 07:24:12;;;;;;;5.97;0.80;;;11.10;99.90;;;;;;9190923;19;19958;-72
2022/10/19 07:27:18;;;;;;;4.55;0.63;;;11.40;99.90;;;;;;9195032;19;19914;-72
2022/10/19 07:30:22;;;;;;;5.68;0.82;;;11.70;99.90;;;;;;9190240;19;19919;-72
2022/10/19 07:33:26;;;;;;;7.25;0.90;;;;;;;;;;9186619;19;19988;-71
2022/10/19 07:36:32;;;;;;;3.15;0.40;;;11.00;99.90;;;;;;9190196;19;19923;-72
2022/10/19 07:39:36;;;;;;;6.28;0.98;;;11.70;99.90;;;;;;9197413;19;20376;-71
2022/10/19 07:42:42;;;;;;;5.10;0.55;;;12.00;99.90;;;;;;9196916;19;19911;-72
2022/10/19 07:45:47;;;;;;;2.00;0.73;;;11.60;99.90;;;;;;9195729;19;19922;-72
2022/10/19 07:48:51;;;;;;;6.05;0.68;;;11.50;99.90;;;;;;9197934;19;19922;-72
2022/10/19 07:51:55;;;;;;;6.85;0.95;;;11.80;99.90;;;;;;9195618;19;19921;-72
2022/10/19 07:54:59;;;;;;;7.53;1.83;;;11.40;99.90;;;;;;9197376;19;19923;-72
2022/10/19 07:58:06;;;;;;;5.53;1.00;;;12.10;99.90;;;;;;9195893;19;19943;-72
2022/10/19 08:01:12;;;;;;;10.73;0.80;;;11.80;99.90;;;;;;9196279;19;19921;-72
2022/10/19 08:04:18;;;;;;;5.78;0.60;;;12.40;99.90;;;;;;9197699;19;19948;-72
2022/10/19 08:07:22;;;;;;;8.82;0.82;;;11.60;99.90;;;;;;9192395;19;19919;-72
2022/10/19 08:10:26;;;;;;;6.95;0.75;;;11.90;99.90;;;;;;9196107;19;20309;-72
2022/10/19 08:13:33;;;;;;;11.18;1.05;;;11.80;99.90;;;;;;9195972;19;19925;-72
2022/10/19 08:16:39;;;;;;;7.28;0.90;;;12.70;99.90;;;;;;9195561;19;19957;-73
2022/10/19 08:19:43;;;;;;;;;;;12.10;99.90;;;;;;9195407;19;19934;-72
2022/10/19 08:22:47;;;;;;;4.57;1.15;;;12.60;99.90;;;;;;9197121;19;19919;-73
2022/10/19 08:25:51;;;;;;;7.75;1.25;;;;;;;;;;9195468;19;19919;-72
2022/10/19 08:29:01;;;;;;;4.85;0.98;;;12.50;99.90;;;;;;9195904;19;19926;-73
2022/10/19 08:32:05;;;;;;;4.10;0.60;;;12.80;99.90;;;;;;9192445;19;19923;-73
2022/10/19 08:35:09;;;;;;;3.65;0.60;;;12.70;99.90;;;;;;9199268;19;19921;-73
2022/10/19 08:38:14;;;;;;;4.80;0.70;;;12.20;99.90;;;;;;9196445;19;19927;-73
2022/10/19 08:41:39;;;;;;;1.40;0.60;;;12.00;99.90;;;;;;9193018;19;19991;-73
2022/10/19 08:45:24;;;;;;;4.53;0.60;;;12.70;99.90;;;;;;9193047;19;20346;-73
2022/10/19 08:48:35;;;;;;;5.18;0.70;;;12.50;99.90;;;;;;9193401;19;19949;-73
2022/10/19 08:51:42;;;;;;;5.53;1.13;;;13.00;99.90;;;;;;9194845;19;19970;-73
2022/10/19 08:54:52;;;;;;;;;;;12.50;99.90;;;;;;9200640;19;20372;-72
2022/10/19 08:58:04;;;;;;;4.43;0.60;;;12.70;99.90;;;;;;9196166;19;19922;-73
2022/10/19 09:01:09;;;;;;;;;;;12.70;99.90;;;;;;9193479;19;19918;-73
2022/10/19 09:04:23;;;;;;;7.03;1.00;;;13.00;99.90;;;;;;9194279;19;20397;-73
2022/10/19 09:07:31;;;;;;;5.60;1.38;;;12.90;99.90;;;;;;9191761;19;19949;-73
2022/10/19 09:10:38;;;;;;;4.85;0.63;;;12.90;99.90;;;;;;9192051;19;19945;-73
2022/10/19 09:13:45;;;;;;;5.32;1.10;;;12.50;99.90;;;;;;9194421;19;19933;-73
2022/10/19 09:16:49;;;;;;;4.10;0.70;;;12.70;99.90;;;;;;9195477;19;20333;-73
2022/10/19 09:19:56;;;;;;;5.38;0.80;;;13.00;99.90;;;;;;9192926;19;19930;-73
2022/10/19 09:23:06;;;;;;;7.97;0.88;;;12.70;99.90;;;;;;9192502;19;19926;-73
2022/10/19 09:26:16;;;;;;;6.97;0.60;;;13.20;99.90;;;;;;9190970;19;20021;-72
2022/10/19 09:29:27;;;;;;;5.07;1.05;;;13.30;99.90;;;;;;9196867;19;19915;-72
2022/10/19 09:32:36;;;;;;;8.48;0.95;;;12.80;99.90;;;;;;9189147;19;19922;-72
2022/10/19 09:35:46;;;;;;;3.85;0.80;;;12.50;99.90;;;;;;9187952;19;19937;-72
2022/10/19 09:38:50;;;;;;;6.18;1.13;;;13.30;99.90;;;;;;9192617;19;19914;-73
2022/10/19 09:41:57;;;;;;;6.20;0.70;;;13.20;99.90;;;;;;9188408;19;20355;-72
2022/10/19 09:45:04;;;;;;;6.82;0.82;;;12.60;99.90;;;;;;9185346;19;20254;-72
2022/10/19 09:48:18;;;;;;;4.88;0.63;;;13.20;99.90;;;;;;9177994;19;20346;-72
2022/10/19 09:51:25;;;;;;;5.88;1.45;;;13.50;99.90;;;;;;9180383;19;20623;-72
2022/10/19 09:54:36;;;;;;;6.18;1.02;;;12.90;99.90;;;;;;9183273;19;19919;-72
2022/10/19 09:57:44;;;;;;;5.45;1.05;;;12.70;99.90;;;;;;9181124;19;20641;-71
2022/10/19 10:00:53;;;;;;;2.28;0.60;;;13.50;99.90;;;;;;9180909;19;19930;-71
2022/10/19 10:04:07;;;;;;;2.33;0.63;;;13.20;99.90;;;;;;9180355;19;19961;-72
2022/10/19 10:07:18;;;;;;;8.00;0.90;;;13.30;99.90;;;;;;9178871;19;19926;-71
2022/10/19 10:10:26;;;;;;;4.93;0.98;;;13.70;99.90;;;;;;9181338;19;20316;-72
2022/10/19 10:13:30;;;;;;;6.75;0.85;;;13.00;99.90;;;;;;9182620;19;19922;-72
2022/10/19 10:16:37;;;;;;;4.07;0.65;;;13.50;99.90;;;;;;9192233;19;20276;-70
2022/10/19 10:19:52;;;;;;;5.80;0.70;;;12.80;99.90;;;;;;9193286;19;20265;-71
2022/10/19 10:23:02;;;;;;;10.23;0.95;;;13.40;99.90;;;;;;9190972;19;19943;-72
2022/10/19 10:26:13;;;;;;;6.68;1.13;;;13.80;99.90;;;;;;9187318;19;19919;-71
2022/10/19 10:29:22;;;;;;;4.72;0.95;;;13.90;99.90;;;;;;9192524;19;19923;-71
2022/10/19 10:32:27;;;;;;;4.35;1.88;;;13.20;99.90;;;;;;9191525;19;19929;-71
2022/10/19 10:35:35;;;;;;;6.00;0.90;;;13.90;99.90;;;;;;9191867;19;19930;-71
2022/10/19 10:38:43;;;;;;;5.65;0.73;;;13.30;99.90;;;;;;9191073;19;19953;-71
2022/10/19 10:41:50;;;;;;;4.32;1.10;;;13.30;99.90;;;;;;9191419;19;19953;-71
2022/10/19 10:44:56;;;;;;;3.60;1.60;;;13.90;99.90;;;;;;9184557;19;19999;-73
2022/10/19 10:48:01;;;;;;;5.68;1.05;;;13.20;99.90;;;;;;9175066;19;20016;-73
2022/10/19 10:51:09;;;;;;;5.72;1.15;;;13.40;99.90;;;;;;9178314;19;19990;-73
2022/10/19 10:54:24;;;;;;;2.90;0.98;;;13.50;99.90;;;;;;9182099;19;19929;-71
2022/10/19 10:57:33;;;;;;;5.70;1.13;;;13.50;99.90;;;;;;9190980;19;19929;-71
2022/10/19 11:00:39;;;;;;;1.58;0.70;;;13.60;99.90;;;;;;9187755;19;20335;-71
2022/10/19 11:03:51;;;;;;;3.65;1.45;;;12.80;99.90;;;;;;9187008;19;19914;-73
2022/10/19 11:06:58;;;;;;;1.95;0.80;;;13.30;99.90;;;;;;9187220;19;20276;-72
2022/10/19 11:10:12;;;;;;;2.70;0.90;;;12.90;99.90;;;;;;9187416;19;19929;-71
2022/10/19 11:13:23;;;;;;;5.22;0.85;;;13.90;99.90;;;;;;9187228;19;20268;-72
2022/10/19 11:16:32;;;;;;;5.85;1.25;;;13.20;99.90;;;;;;9187597;19;19923;-71
2022/10/19 11:19:38;;;;;;;6.50;1.42;;;13.00;99.90;;;;;;9188678;19;19923;-68
2022/10/19 11:22:47;;;;;;;8.00;0.80;;;13.10;99.90;;;;;;9187469;19;19930;-73
2022/10/19 11:26:05;;;;;;;4.75;1.10;;;13.20;99.90;;;;;;9185357;19;19936;-74
2022/10/19 11:29:26;;;;;;;6.30;0.63;;;13.00;99.90;;;;;;9150937;19;19965;-73
2022/10/19 11:32:37;;;;;;;5.40;1.20;;;13.50;99.90;;;;;;9193634;19;19919;-73
2022/10/19 11:35:53;;;;;;;4.03;0.90;;;13.20;99.90;;;;;;9199786;19;19914;-72
2022/10/19 11:39:13;;;;;;;7.45;0.98;;;13.80;99.90;;;;;;9199752;19;19956;-73
2022/10/19 11:42:25;;;;;;;4.95;0.95;;;14.70;99.90;;;;;;9199122;19;19926;-73
2022/10/19 11:45:49;;;;;;;6.53;1.25;;;13.40;99.90;;;;;;9199126;19;19915;-73
2022/10/19 11:49:11;;;;;;;6.70;0.70;;;13.30;99.90;;;;;;9198069;19;19992;-73
2022/10/19 11:52:22;;;;;;;6.35;1.02;;;14.10;99.90;;;;;;9195056;19;19946;-72
2022/10/19 11:55:38;;;;;;;5.03;0.82;;;14.30;99.90;;;;;;9198062;19;19923;-72
2022/10/19 11:58:57;;;;;;;4.32;0.73;;;13.80;99.90;;;;;;9195357;19;19922;-72
2022/10/19 12:02:15;;;;;;;2.67;0.68;;;13.90;99.90;;;;;;9194278;19;19926;-73
2022/10/19 12:05:25;;;;;;;4.03;0.98;;;14.80;99.90;;;;;;9196271;19;19978;-73
2022/10/19 12:08:40;;;;;;;2.40;0.60;;;14.40;99.90;;;;;;9193620;19;19930;-72
2022/10/19 12:11:59;;;;;;;2.60;0.60;;;14.40;99.90;;;;;;9196612;19;19915;-73
2022/10/19 12:15:22;;;;;;;4.95;1.17;;;13.60;99.90;;;;;;9196151;19;19944;-73
2022/10/19 12:18:40;;;;;;;3.55;1.42;;;14.40;99.90;;;;;;9197384;19;19924;-72
2022/10/19 12:21:46;;;;;;;6.68;1.00;;;14.40;99.90;;;;;;9196829;19;19953;-72
2022/10/19 12:24:52;;;;;;;3.78;1.17;;;13.90;99.90;;;;;;9193712;19;20238;-73
2022/10/19 12:27:56;;;;;;;4.60;1.00;;;14.30;99.90;;;;;;9193933;19;19965;-73
2022/10/19 12:31:04;;;;;;;5.05;0.80;;;14.10;99.90;;;;;;9195753;19;19927;-74
2022/10/19 12:34:16;;;;;;;4.22;1.00;;;15.30;99.90;;;;;;9196418;19;19929;-73
2022/10/19 12:37:27;;;;;;;4.45;1.40;;;14.40;99.90;;;;;;9196356;19;19973;-73
2022/10/19 12:40:37;;;;;;;3.72;0.60;;;13.90;99.90;;;;;;9193938;19;19948;-72
2022/10/19 12:43:54;;;;;;;4.93;1.50;;;13.60;99.90;;;;;;9197328;19;19955;-73
2022/10/19 12:47:08;;;;;;;2.80;0.85;;;13.80;99.90;;;;;;9194239;19;20453;-72
2022/10/19 12:50:12;;;;;;;7.13;1.10;;;14.30;99.90;;;;;;9194650;19;19922;-72
2022/10/19 12:53:25;;;;;;;3.67;0.82;;;13.90;99.90;;;;;;9194577;19;19926;-72
2022/10/19 12:56:29;;;;;;;2.40;0.85;;;14.40;99.90;;;;;;9193610;19;19949;-72
2022/10/19 12:59:36;;;;;;;3.75;0.80;;;14.10;99.90;;;;;;9193205;19;19939;-72
2022/10/19 13:02:45;;;;;;;3.95;0.98;;;14.30;99.90;;;;;;9188798;19;19923;-73
2022/10/19 13:05:58;;;;;;;5.03;1.63;;;14.80;99.90;;;;;;9192037;19;20027;-73
2022/10/19 13:09:04;;;;;;;2.83;1.10;;;14.30;99.90;;;;;;9195636;19;19926;-73
2022/10/19 13:12:47;;;;;;;5.45;1.25;;;14.40;99.90;;;;;;9197703;19;19957;-72
2022/10/19 13:15:53;;;;;;;5.45;1.00;;;14.80;99.90;;;;;;9191404;19;19911;-73
2022/10/19 13:19:20;;;;;;;4.72;1.00;;;15.60;99.90;;;;;;9194534;19;19957;-72
2022/10/19 13:22:29;;;;;;;6.18;0.95;;;16.50;99.90;;;;;;9193834;19;19935;-73
2022/10/19 13:25:34;;;;;;;7.72;0.85;;;16.10;99.90;;;;;;9191547;19;20325;-73
2022/10/19 13:28:39;;;;;;;1.67;0.73;;;16.70;99.90;;;;;;9184954;19;19925;-72
2022/10/19 13:31:43;;;;;;;7.22;1.00;;;16.00;99.90;;;;;;9194386;19;19918;-72
2022/10/19 13:34:50;;;;;;;3.08;0.80;;;17.30;99.90;;;;;;9188585;19;20199;-73
2022/10/19 13:38:25;;;;;;;7.10;0.82;;;17.00;99.90;;;;;;9192811;19;19949;-73
2022/10/19 13:41:45;;;;;;;5.55;1.02;;;17.60;99.90;;;;;;9193446;19;20284;-73
2022/10/19 13:44:51;;;;;;;4.05;0.98;;;16.80;99.90;;;;;;9189002;19;19927;-73
2022/10/19 13:47:58;;;;;;;3.90;0.90;;;18.70;99.90;;;;;;9189197;19;20024;-73
2022/10/19 13:51:16;;;;;;;4.00;1.10;;;19.00;99.90;;;;;;9192594;19;19937;-73
2022/10/19 13:54:37;;;;;;;4.75;1.38;;;17.30;99.80;;;;;;9193863;19;19929;-73
2022/10/19 13:57:55;;;;;;;2.85;1.02;;;18.70;99.90;;;;;;9191162;19;19938;-73
2022/10/19 14:01:14;;;;;;;4.43;1.10;;;17.50;99.90;;;;;;9189809;19;20280;-72
2022/10/19 14:04:26;;;;;;;5.38;1.08;;;17.70;99.90;;;;;;9191584;19;19922;-73
2022/10/19 14:07:42;;;;;;;5.28;1.50;;;17.20;99.90;;;;;;9191267;19;20340;-72
2022/10/19 14:10:51;;;;;;;11.65;1.90;;;16.10;99.90;;;;;;9194352;19;19918;-72
2022/10/19 14:14:14;;;;;;;6.88;2.85;;;17.20;99.90;;;;;;9192370;19;19939;-72
2022/10/19 14:17:23;;;;;;;4.90;1.85;;;16.40;99.90;;;;;;9192609;19;20343;-72
2022/10/19 14:20:30;;;;;;;6.03;1.95;;;17.00;99.90;;;;;;9190943;19;19958;-72
2022/10/19 14:23:39;;;;;;;7.50;2.63;;;17.10;99.90;;;;;;9194228;19;19930;-73
2022/10/19 14:26:43;;;;;;;6.10;1.60;;;17.20;99.90;;;;;;9189088;19;19923;-73
2022/10/19 14:29:49;;;;;;;6.18;2.00;;;16.30;99.90;;;;;;9196472;19;19931;-73
2022/10/19 14:32:53;;;;;;;;;;;16.40;99.90;;;;;;9200045;19;19934;-74
2022/10/19 14:35:58;;;;;;;5.32;1.95;;;15.90;99.90;;;;;;9202608;19;19927;-74
2022/10/19 14:39:06;;;;;;;3.13;2.30;;;16.70;99.90;;;;;;9200945;19;20278;-74
2022/10/19 14:42:12;;;;;;;8.23;2.17;;;15.90;99.90;;;;;;9202414;19;19923;-74
2022/10/19 14:45:18;;;;;;;3.38;2.45;;;15.90;99.90;;;;;;9200818;19;19919;-73
2022/10/19 14:48:22;;;;;;;6.80;2.92;;;15.70;99.90;;;;;;9199035;19;19942;-73
2022/10/19 14:51:34;;;;;;;4.75;2.70;;;16.60;99.90;;;;;;9199606;19;19929;-73
2022/10/19 14:54:45;;;;;;;7.90;3.67;;;16.10;99.90;;;;;;9202093;19;19922;-73
2022/10/19 14:57:52;;;;;;;3.75;2.90;;;16.30;99.90;;;;;;9199743;19;19945;-72
2022/10/19 15:00:57;;;;;;;4.13;3.35;;;17.70;99.90;;;;;;9193788;19;20010;-73
2022/10/19 15:04:01;;;;;;;7.55;3.20;;;18.00;99.90;;;;;;9189494;19;19919;-73
2022/10/19 15:07:15;;;;;;;6.93;3.45;;;16.70;99.90;;;;;;9195718;19;19948;-74
2022/10/19 15:10:26;;;;;;;5.68;3.50;;;16.10;99.90;;;;;;9196310;19;20248;-73
2022/10/19 15:13:34;;;;;;;4.82;3.65;;;16.10;99.90;;;;;;9189414;19;20400;-71
2022/10/19 15:16:47;;;;;;;7.93;3.92;;;16.10;99.90;;;;;;9188755;19;19918;-72
2022/10/19 15:19:54;;;;;;;4.97;3.22;;;15.80;99.90;;;;;;9187122;19;19911;-72
2022/10/19 15:22:59;;;;;;;4.78;3.03;;;15.70;99.90;;;;;;9188602;19;19930;-73
2022/10/19 15:26:16;;;;;;;7.65;3.40;;;16.10;99.90;;;;;;9186240;19;20242;-72
2022/10/19 15:29:29;;;;;;;4.65;2.95;;;15.90;99.90;;;;;;9183837;19;19948;-73
2022/10/19 15:32:36;;;;;;;5.93;2.85;;;15.60;99.90;;;;;;9186630;19;19927;-73
2022/10/19 15:35:42;;;;;;;7.38;3.30;;;16.00;99.90;;;;;;9186940;19;20636;-72
2022/10/19 15:38:48;;;;;;;6.65;2.85;;;14.70;99.90;;;;;;9185111;19;20572;-72
2022/10/19 15:41:54;;;;;;;5.47;2.67;;;14.30;99.90;;;;;;9184396;19;19931;-72
2022/10/19 15:44:59;;;;;;;4.43;2.67;;;14.50;99.90;;;;;;9185972;19;19911;-73
2022/10/19 15:48:28;;;;;;;3.15;2.20;;;14.70;99.90;;;;;;9198775;19;19929;-73
2022/10/19 15:51:44;;;;;;;4.35;2.40;;;13.90;99.90;;;;;;9195230;19;19918;-72
2022/10/19 15:54:49;;;;;;;3.58;2.33;;;14.10;99.90;;;;;;9197580;19;19919;-72
2022/10/19 15:58:01;;;;;;;4.32;2.10;;;13.50;99.90;;;;;;9200191;19;19918;-72
2022/10/19 16:01:05;;;;;;;6.20;1.90;;;;;;;;;;9198610;19;19949;-72
2022/10/19 16:04:10;;;;;;;4.88;1.90;;;13.40;99.90;;;;;;9194509;19;20337;-72
2022/10/19 16:07:18;;;;;;;3.70;2.05;;;13.30;99.90;;;;;;9197999;19;19961;-74
2022/10/19 16:10:24;;;;;;;5.15;1.90;;;12.80;99.90;;;;;;9198152;19;20256;-73
2022/10/19 16:13:31;;;;;;;5.88;2.08;;;12.90;99.90;;;;;;9195993;19;19919;-73
2022/10/19 16:16:35;;;;;;;3.90;1.85;;;12.80;99.90;;;;;;9194671;19;20249;-72
2022/10/19 16:19:39;;;;;;;8.77;2.92;;;12.70;99.90;;;;;;9192583;19;19922;-74
2022/10/19 16:22:44;;;;;;;5.47;2.80;;;;;;;;;;9181661;19;19953;-74
2022/10/19 16:25:48;;;;;;;7.00;2.38;;;12.70;99.90;;;;;;9184690;19;20305;-73